createdAt,value
2023-01-20T00:00:45.526Z,99848.09
2023-01-20T00:01:48.423Z,99841.16
2023-01-20T00:02:51.433Z,99860.63
2023-01-20T00:03:55.312Z,99848.13
2023-01-20T00:04:57.074Z,99869.00
2023-01-20T00:05:59.603Z,99851.38
2023-01-20T00:07:01.198Z,99862.16
2023-01-20T00:08:03.751Z,99858.34
2023-01-20T00:09:05.709Z,99875.66
2023-01-20T00:10:09.653Z,99870.94
2023-01-20T00:11:13.094Z,99863.38
2023-01-20T00:12:15.592Z,99864.53
2023-01-20T00:13:17.210Z,99857.25
2023-01-20T00:14:23.666Z,99872.56
2023-01-20T00:15:25.470Z,99863.84
2023-01-20T00:16:29.223Z,99863.75
2023-01-20T00:17:33.241Z,99845.75
2023-01-20T00:18:37.928Z,99869.41
2023-01-20T00:19:39.522Z,99870.22
2023-01-20T00:20:42.288Z,99862.34
2023-01-20T00:21:44.283Z,99862.03
2023-01-20T00:22:46.977Z,99852.69
2023-01-20T00:23:49.247Z,99854.53
2023-01-20T00:24:51.720Z,99849.63
2023-01-20T00:25:53.229Z,99869.06
2023-01-20T00:26:56.079Z,99858.06
2023-01-20T00:27:57.812Z,99867.38
2023-01-20T00:29:00.345Z,99870.28
2023-01-20T00:30:02.030Z,99849.41
2023-01-20T00:31:16.384Z,99863.63
2023-01-20T00:32:18.924Z,99865.63
2023-01-20T00:33:20.471Z,99867.25
2023-01-20T00:34:24.378Z,99867.25
2023-01-20T00:35:27.144Z,99861.63
2023-01-20T00:36:32.398Z,99867.84
2023-01-20T00:37:34.032Z,99872.28
2023-01-20T00:38:36.667Z,99870.78
2023-01-20T00:39:39.295Z,99865.75
2023-01-20T00:40:40.995Z,99871.47
2023-01-20T00:41:43.487Z,99867.63
2023-01-20T00:42:45.247Z,99881.84
2023-01-20T00:43:47.974Z,99871.59
2023-01-20T00:44:49.523Z,99875.34
2023-01-20T00:45:52.141Z,99884.41
2023-01-20T00:46:54.754Z,99874.38
2023-01-20T00:47:56.370Z,99883.41
2023-01-20T00:48:59.097Z,99875.69
2023-01-20T00:50:02.056Z,99879.63
2023-01-20T00:51:06.020Z,99884.44
2023-01-20T00:52:08.569Z,99891.09
2023-01-20T00:53:10.148Z,99878.25
2023-01-20T00:54:12.674Z,99896.09
2023-01-20T00:55:14.795Z,99898.88
2023-01-20T00:56:17.537Z,99882.88
2023-01-20T00:57:19.090Z,99881.25
2023-01-20T00:58:22.532Z,99906.22
2023-01-20T00:59:25.251Z,99897.03
2023-01-20T01:00:27.811Z,99899.34
2023-01-20T01:01:29.615Z,99903.13
2023-01-20T01:02:32.597Z,99897.50
2023-01-20T01:03:34.496Z,99913.84
2023-01-20T01:04:37.043Z,99914.91
2023-01-20T01:05:40.121Z,99901.56
2023-01-20T01:06:42.706Z,99917.44
2023-01-20T01:07:44.341Z,99917.09
2023-01-20T01:08:47.018Z,99914.09
2023-01-20T01:09:48.610Z,99925.91
2023-01-20T01:10:51.143Z,99922.22
2023-01-20T01:11:53.020Z,99935.75
2023-01-20T01:12:55.714Z,99912.53
2023-01-20T01:13:58.247Z,99937.25
2023-01-20T01:14:59.786Z,99936.69
2023-01-20T01:16:02.436Z,99928.41
2023-01-20T01:17:04.996Z,99932.50
2023-01-20T01:18:06.703Z,99935.88
2023-01-20T01:19:09.713Z,99930.47
2023-01-20T01:20:12.437Z,99928.84
2023-01-20T01:21:18.169Z,99935.38
2023-01-20T01:22:19.842Z,99926.84
2023-01-20T01:23:25.314Z,99926.78
2023-01-20T01:24:26.984Z,99924.63
2023-01-20T01:25:29.458Z,99932.22
2023-01-20T01:26:31.064Z,99931.44
2023-01-20T01:27:35.682Z,99941.03
2023-01-20T01:28:37.268Z,99939.63
2023-01-20T01:29:40.287Z,99932.59
2023-01-20T01:30:42.046Z,99940.53
2023-01-20T01:31:44.706Z,99924.91
2023-01-20T01:32:47.242Z,99941.09
2023-01-20T01:33:50.151Z,99953.28
2023-01-20T01:34:51.778Z,99926.13
2023-01-20T01:35:57.388Z,99937.09
2023-01-20T01:37:00.508Z,99937.16
2023-01-20T01:38:03.215Z,99933.25
2023-01-20T01:39:04.881Z,99948.91
2023-01-20T01:40:11.915Z,99941.03
2023-01-20T01:41:18.729Z,99950.22
2023-01-20T01:42:25.302Z,99946.50
2023-01-20T01:43:29.113Z,99952.47
2023-01-20T01:44:39.249Z,99946.50
2023-01-20T01:45:40.853Z,99955.63
2023-01-20T01:46:44.191Z,99949.19
2023-01-20T01:47:49.263Z,99944.88
2023-01-20T01:48:52.036Z,99938.56
2023-01-20T01:49:53.657Z,99950.56
2023-01-20T01:50:59.614Z,99937.59
2023-01-20T01:52:09.061Z,99957.34
2023-01-20T01:53:11.939Z,99944.38
2023-01-20T01:54:17.525Z,99958.13
2023-01-20T01:55:23.378Z,99951.66
2023-01-20T01:56:28.390Z,99952.38
2023-01-20T01:57:31.953Z,99936.94
2023-01-20T01:58:38.126Z,99957.59
2023-01-20T01:59:39.759Z,99960.13
2023-01-20T02:00:43.300Z,99959.09
2023-01-20T02:01:49.577Z,99948.72
2023-01-20T02:02:52.887Z,99940.66
2023-01-20T02:03:58.844Z,99954.81
2023-01-20T02:05:01.376Z,99963.56
2023-01-20T02:06:04.100Z,99961.47
2023-01-20T02:07:12.689Z,99964.94
2023-01-20T02:08:14.318Z,99957.41
2023-01-20T02:09:16.869Z,99967.13
2023-01-20T02:10:18.989Z,99971.88
2023-01-20T02:11:22.058Z,99961.25
2023-01-20T02:12:23.896Z,99982.19
2023-01-20T02:13:26.627Z,99980.31
2023-01-20T02:14:33.525Z,99972.22
2023-01-20T02:15:43.363Z,99975.44
2023-01-20T02:17:00.774Z,99978.31
2023-01-20T02:18:20.438Z,99986.84
2023-01-20T02:19:54.019Z,99992.00
2023-01-20T02:21:18.345Z,99985.22
2023-01-20T02:22:36.616Z,99987.41
2023-01-20T02:23:58.785Z,99982.03
2023-01-20T02:25:26.666Z,99984.97
2023-01-20T02:26:48.186Z,99993.16
2023-01-20T02:28:28.156Z,100003.34
2023-01-20T02:30:08.727Z,100000.75
2023-01-20T02:31:37.977Z,100005.56
2023-01-20T02:32:50.999Z,100003.91
2023-01-20T02:34:00.794Z,99984.50
2023-01-20T02:35:11.097Z,100003.56
2023-01-20T02:36:19.833Z,100004.97
2023-01-20T02:37:26.371Z,100001.59
2023-01-20T02:38:36.195Z,99993.84
2023-01-20T02:39:44.338Z,100004.44
2023-01-20T02:40:56.690Z,100006.53
2023-01-20T02:42:02.309Z,100011.88
2023-01-20T02:43:11.673Z,100025.09
2023-01-20T02:44:19.974Z,100017.38
2023-01-20T02:45:26.456Z,100020.66
2023-01-20T02:46:38.314Z,100010.69
2023-01-20T02:47:51.937Z,100007.78
2023-01-20T02:49:00.713Z,100018.28
2023-01-20T02:50:11.244Z,100010.81
2023-01-20T02:51:18.515Z,100014.69
2023-01-20T02:52:24.005Z,100023.09
2023-01-20T02:53:32.833Z,100035.50
2023-01-20T02:54:38.464Z,100031.16
2023-01-20T02:55:44.174Z,100019.69
2023-01-20T02:56:49.280Z,100025.78
2023-01-20T02:57:56.385Z,100019.94
2023-01-20T02:59:02.590Z,100011.88
2023-01-20T03:00:09.767Z,100015.13
2023-01-20T03:01:18.630Z,100019.94
2023-01-20T03:02:23.767Z,100030.69
2023-01-20T03:03:30.612Z,100031.19
2023-01-20T03:04:37.452Z,100018.06
2023-01-20T03:05:45.165Z,100031.88
2023-01-20T03:06:50.936Z,100025.56
2023-01-20T03:07:53.956Z,100006.13
2023-01-20T03:08:59.739Z,100025.75
2023-01-20T03:10:06.179Z,100024.94
2023-01-20T03:11:10.313Z,100022.66
2023-01-20T03:12:18.541Z,100027.75
2023-01-20T03:13:27.024Z,100032.44
2023-01-20T03:14:28.869Z,100042.50
2023-01-20T03:15:38.239Z,100038.88
2023-01-20T03:16:43.758Z,100037.47
2023-01-20T03:17:45.312Z,100033.88
2023-01-20T03:18:49.732Z,100045.06
2023-01-20T03:19:51.397Z,100039.84
2023-01-20T03:20:53.921Z,100032.69
2023-01-20T03:21:57.827Z,100032.13
2023-01-20T03:23:00.374Z,100045.31
2023-01-20T03:24:05.426Z,100048.47
2023-01-20T03:25:08.790Z,100042.59
2023-01-20T03:26:14.394Z,100045.47
2023-01-20T03:27:16.151Z,100049.72
2023-01-20T03:28:18.696Z,100054.19
2023-01-20T03:29:21.456Z,100056.28
2023-01-20T03:30:25.478Z,100059.94
2023-01-20T03:31:31.856Z,100057.72
2023-01-20T03:32:33.824Z,100048.13
2023-01-20T03:33:36.722Z,100061.75
2023-01-20T03:34:45.040Z,100069.72
2023-01-20T03:35:48.021Z,100052.50
2023-01-20T03:36:52.025Z,100051.16
2023-01-20T03:37:54.755Z,100049.00
2023-01-20T03:38:58.173Z,100053.94
2023-01-20T03:40:01.763Z,100062.09
2023-01-20T03:41:07.242Z,100076.66
2023-01-20T03:42:14.122Z,100058.44
2023-01-20T03:43:24.226Z,100054.88
2023-01-20T03:44:34.768Z,100056.75
2023-01-20T03:45:43.127Z,100052.56
2023-01-20T03:46:51.771Z,100059.00
2023-01-20T03:47:59.080Z,100072.13
2023-01-20T03:49:08.582Z,100069.41
2023-01-20T03:50:21.642Z,100048.25
2023-01-20T03:51:29.068Z,100068.84
2023-01-20T03:52:47.800Z,100063.22
2023-01-20T03:53:56.648Z,100071.84
2023-01-20T03:55:03.217Z,100071.13
2023-01-20T03:56:13.151Z,100062.50
2023-01-20T03:57:19.693Z,100067.69
2023-01-20T03:58:29.837Z,100072.91
2023-01-20T03:59:34.428Z,100063.25
2023-01-20T04:00:40.756Z,100062.63
2023-01-20T04:01:46.145Z,100052.22
2023-01-20T04:02:49.576Z,100065.06
2023-01-20T04:03:54.034Z,100058.78
2023-01-20T04:04:57.927Z,100064.63
2023-01-20T04:06:04.119Z,100086.56
2023-01-20T04:07:09.245Z,100072.22
2023-01-20T04:08:13.917Z,100072.56
2023-01-20T04:09:22.991Z,100063.75
2023-01-20T04:10:27.628Z,100089.91
2023-01-20T04:11:30.415Z,100069.16
2023-01-20T04:12:32.353Z,100078.47
2023-01-20T04:13:36.860Z,100106.06
2023-01-20T04:14:38.515Z,100093.41
2023-01-20T04:15:45.591Z,100073.59
2023-01-20T04:16:52.119Z,100096.25
2023-01-20T04:17:56.787Z,100102.56
2023-01-20T04:18:58.365Z,100094.22
2023-01-20T04:20:03.537Z,100090.22
2023-01-20T04:21:07.219Z,100084.97
2023-01-20T04:22:16.873Z,100103.56
2023-01-20T04:23:24.470Z,100095.78
2023-01-20T04:24:31.914Z,100101.31
2023-01-20T04:25:34.707Z,100106.84
2023-01-20T04:26:37.410Z,100097.63
2023-01-20T04:27:39.100Z,100106.56
2023-01-20T04:28:41.765Z,100104.63
2023-01-20T04:29:43.492Z,100091.28
2023-01-20T04:30:46.152Z,100090.53
2023-01-20T04:31:48.188Z,100086.03
2023-01-20T04:32:51.125Z,100095.38
2023-01-20T04:33:52.776Z,100094.03
2023-01-20T04:34:55.461Z,100095.44
2023-01-20T04:35:57.098Z,100097.66
2023-01-20T04:37:03.805Z,100110.59
2023-01-20T04:38:06.704Z,100113.44
2023-01-20T04:39:09.645Z,100115.69
2023-01-20T04:40:12.037Z,100117.41
2023-01-20T04:41:14.684Z,100101.75
2023-01-20T04:42:16.284Z,100121.38
2023-01-20T04:43:19.202Z,100111.53
2023-01-20T04:44:20.927Z,100101.34
2023-01-20T04:45:23.758Z,100105.56
2023-01-20T04:46:25.432Z,100105.41
2023-01-20T04:47:30.864Z,100102.13
2023-01-20T04:48:32.540Z,100104.03
2023-01-20T04:49:35.392Z,100126.88
2023-01-20T04:50:39.209Z,100108.16
2023-01-20T04:51:41.907Z,100119.09
2023-01-20T04:52:47.593Z,100116.63
2023-01-20T04:53:50.184Z,100111.06
2023-01-20T04:54:51.768Z,100113.88
2023-01-20T04:55:54.372Z,100106.66
2023-01-20T04:56:55.968Z,100114.09
2023-01-20T04:57:58.559Z,100110.53
2023-01-20T04:59:00.495Z,100125.00
2023-01-20T05:00:03.214Z,100118.03
2023-01-20T05:01:04.887Z,100115.75
2023-01-20T05:02:07.814Z,100117.44
2023-01-20T05:03:09.611Z,100133.13
2023-01-20T05:04:12.408Z,100138.56
2023-01-20T05:05:14.632Z,100133.84
2023-01-20T05:06:18.889Z,100132.03
2023-01-20T05:07:20.508Z,100136.13
2023-01-20T05:08:24.440Z,100148.28
2023-01-20T05:09:26.051Z,100132.66
2023-01-20T05:10:30.388Z,100147.00
2023-01-20T05:11:31.992Z,100145.19
2023-01-20T05:12:34.555Z,100145.63
2023-01-20T05:13:39.680Z,100130.91
2023-01-20T05:14:42.297Z,100149.41
2023-01-20T05:15:44.604Z,100150.50
2023-01-20T05:16:47.787Z,100141.03
2023-01-20T05:17:49.613Z,100153.63
2023-01-20T05:18:52.358Z,100157.91
2023-01-20T05:19:54.120Z,100149.88
2023-01-20T05:20:56.735Z,100136.72
2023-01-20T05:21:59.706Z,100147.06
2023-01-20T05:23:02.448Z,100141.75
2023-01-20T05:24:05.993Z,100156.44
2023-01-20T05:25:09.696Z,100162.97
2023-01-20T05:26:11.471Z,100174.78
2023-01-20T05:27:16.555Z,100164.09
2023-01-20T05:28:18.741Z,100170.78
2023-01-20T05:29:21.361Z,100177.31
2023-01-20T05:30:22.997Z,100164.97
2023-01-20T05:31:26.023Z,100164.66
2023-01-20T05:32:27.674Z,100163.44
2023-01-20T05:33:30.344Z,100156.72
2023-01-20T05:34:34.512Z,100161.50
2023-01-20T05:35:38.619Z,100152.69
2023-01-20T05:36:40.376Z,100173.88
2023-01-20T05:37:42.970Z,100166.31
2023-01-20T05:38:44.590Z,100179.06
2023-01-20T05:39:48.595Z,100170.41
2023-01-20T05:40:50.503Z,100186.06
2023-01-20T05:41:53.144Z,100175.38
2023-01-20T05:42:58.990Z,100170.09
2023-01-20T05:44:01.647Z,100173.63
2023-01-20T05:45:03.694Z,100161.06
2023-01-20T05:46:07.010Z,100168.56
2023-01-20T05:47:08.838Z,100176.03
2023-01-20T05:48:11.425Z,100154.38
2023-01-20T05:49:14.336Z,100169.59
2023-01-20T05:50:17.490Z,100158.97
2023-01-20T05:51:19.350Z,100164.38
2023-01-20T05:52:22.267Z,100179.78
2023-01-20T05:53:23.922Z,100175.69
2023-01-20T05:54:27.151Z,100177.44
2023-01-20T05:55:30.018Z,100179.09
2023-01-20T05:56:32.564Z,100169.91
2023-01-20T05:57:34.129Z,100186.16
2023-01-20T05:58:36.604Z,100178.19
2023-01-20T05:59:38.158Z,100185.53
2023-01-20T06:00:40.703Z,100180.09
2023-01-20T06:01:42.716Z,100182.72
2023-01-20T06:02:45.560Z,100183.19
2023-01-20T06:03:47.214Z,100181.47
2023-01-20T06:04:50.030Z,100185.75
2023-01-20T06:05:51.612Z,100191.25
2023-01-20T06:06:54.271Z,100169.59
2023-01-20T06:07:56.243Z,100173.59
2023-01-20T06:08:58.805Z,100162.56
2023-01-20T06:10:00.429Z,100178.59
2023-01-20T06:11:04.364Z,100191.19
2023-01-20T06:12:06.513Z,100187.41
2023-01-20T06:13:09.360Z,100190.75
2023-01-20T06:14:10.950Z,100202.09
2023-01-20T06:15:13.680Z,100173.94
2023-01-20T06:16:17.836Z,100189.00
2023-01-20T06:17:21.794Z,100204.31
2023-01-20T06:18:25.754Z,100207.84
2023-01-20T06:19:27.285Z,100200.69
2023-01-20T06:20:32.239Z,100195.91
2023-01-20T06:21:34.782Z,100199.06
2023-01-20T06:22:36.506Z,100212.59
2023-01-20T06:23:39.144Z,100207.16
2023-01-20T06:24:40.744Z,100212.84
2023-01-20T06:25:46.888Z,100209.47
2023-01-20T06:26:53.819Z,100204.09
2023-01-20T06:27:56.396Z,100202.53
2023-01-20T06:28:59.498Z,100232.09
2023-01-20T06:30:02.095Z,100233.28
2023-01-20T06:31:05.432Z,100227.88
2023-01-20T06:32:08.123Z,100230.94
2023-01-20T06:33:10.822Z,100229.38
2023-01-20T06:34:13.556Z,100245.09
2023-01-20T06:35:15.670Z,100230.69
2023-01-20T06:36:18.611Z,100250.81
2023-01-20T06:37:20.219Z,100243.00
2023-01-20T06:38:23.069Z,100247.81
2023-01-20T06:39:25.869Z,100234.50
2023-01-20T06:40:27.442Z,100254.25
2023-01-20T06:41:30.203Z,100234.22
2023-01-20T06:42:33.976Z,100254.09
2023-01-20T06:43:35.988Z,100247.06
2023-01-20T06:44:38.540Z,100262.66
2023-01-20T06:45:40.416Z,100264.06
2023-01-20T06:46:43.138Z,100260.31
2023-01-20T06:47:48.774Z,100257.84
2023-01-20T06:48:51.318Z,100258.41
2023-01-20T06:49:53.003Z,100270.78
2023-01-20T06:51:00.907Z,100264.75
2023-01-20T06:52:03.469Z,100252.03
2023-01-20T06:53:05.107Z,100261.72
2023-01-20T06:54:07.655Z,100274.38
2023-01-20T06:55:09.671Z,100264.53
2023-01-20T06:56:13.681Z,100272.13
2023-01-20T06:57:15.386Z,100279.75
2023-01-20T06:58:19.236Z,100274.38
2023-01-20T06:59:21.772Z,100271.09
2023-01-20T07:00:24.061Z,100277.31
2023-01-20T07:01:29.758Z,100264.91
2023-01-20T07:02:31.439Z,100280.94
2023-01-20T07:03:34.073Z,100286.22
2023-01-20T07:04:38.318Z,100267.06
2023-01-20T07:05:40.915Z,100285.59
2023-01-20T07:06:42.936Z,100272.44
2023-01-20T07:07:46.137Z,100261.72
2023-01-20T07:08:48.958Z,100263.97
2023-01-20T07:09:55.184Z,100269.94
2023-01-20T07:10:57.941Z,100285.00
2023-01-20T07:12:00.540Z,100293.75
2023-01-20T07:13:02.089Z,100292.28
2023-01-20T07:14:07.182Z,100293.97
2023-01-20T07:15:09.354Z,100285.31
2023-01-20T07:16:15.539Z,100297.88
2023-01-20T07:17:19.688Z,100301.13
2023-01-20T07:18:21.281Z,100299.06
2023-01-20T07:19:23.895Z,100300.94
2023-01-20T07:20:26.574Z,100302.00
2023-01-20T07:21:29.611Z,100296.63
2023-01-20T07:22:31.201Z,100299.13
2023-01-20T07:23:34.747Z,100305.69
2023-01-20T07:24:36.706Z,100286.75
2023-01-20T07:25:39.581Z,100300.34
2023-01-20T07:26:42.127Z,100301.59
2023-01-20T07:27:46.251Z,100304.03
2023-01-20T07:28:48.616Z,100317.78
2023-01-20T07:29:52.581Z,100313.00
2023-01-20T07:30:54.982Z,100316.69
2023-01-20T07:31:57.580Z,100319.75
2023-01-20T07:32:59.180Z,100299.44
2023-01-20T07:34:01.710Z,100322.06
2023-01-20T07:35:03.530Z,100313.63
2023-01-20T07:36:07.867Z,100318.56
2023-01-20T07:37:10.394Z,100315.41
2023-01-20T07:38:11.950Z,100305.56
2023-01-20T07:39:15.489Z,100319.06
2023-01-20T07:40:18.476Z,100325.56
2023-01-20T07:41:20.669Z,100319.41
2023-01-20T07:42:23.209Z,100328.25
2023-01-20T07:43:24.800Z,100312.59
2023-01-20T07:44:27.281Z,100323.09
2023-01-20T07:45:30.145Z,100328.28
2023-01-20T07:46:33.233Z,100323.53
2023-01-20T07:47:34.924Z,100328.09
2023-01-20T07:48:37.536Z,100326.81
2023-01-20T07:49:40.045Z,100322.09
2023-01-20T07:50:41.699Z,100315.13
2023-01-20T07:51:44.239Z,100323.63
2023-01-20T07:52:45.861Z,100315.16
2023-01-20T07:53:51.019Z,100324.56
2023-01-20T07:54:52.716Z,100322.56
2023-01-20T07:55:57.455Z,100332.47
2023-01-20T07:57:00.022Z,100330.19
2023-01-20T07:58:02.320Z,100326.69
2023-01-20T07:59:05.640Z,100330.38
2023-01-20T08:00:12.097Z,100327.94
2023-01-20T08:01:17.026Z,100330.41
2023-01-20T08:02:19.698Z,100340.88
2023-01-20T08:03:21.456Z,100340.25
2023-01-20T08:04:24.011Z,100336.38
2023-01-20T08:05:25.580Z,100344.59
2023-01-20T08:06:28.272Z,100349.53
2023-01-20T08:07:29.955Z,100353.84
2023-01-20T08:08:33.078Z,100349.09
2023-01-20T08:09:34.655Z,100349.69
2023-01-20T08:10:37.230Z,100339.09
2023-01-20T08:11:39.972Z,100342.56
2023-01-20T08:12:42.540Z,100346.66
2023-01-20T08:13:44.294Z,100347.75
2023-01-20T08:14:46.801Z,100356.47
2023-01-20T08:15:48.409Z,100346.78
2023-01-20T08:16:52.507Z,100351.31
2023-01-20T08:17:55.160Z,100350.47
2023-01-20T08:18:57.683Z,100360.75
2023-01-20T08:19:59.274Z,100362.25
2023-01-20T08:21:06.382Z,100361.31
2023-01-20T08:22:09.098Z,100356.75
2023-01-20T08:23:10.711Z,100361.28
2023-01-20T08:24:13.293Z,100353.03
2023-01-20T08:25:15.519Z,100358.81
2023-01-20T08:26:19.293Z,100340.47
2023-01-20T08:27:22.103Z,100358.28
2023-01-20T08:28:23.617Z,100362.09
2023-01-20T08:29:26.544Z,100358.41
2023-01-20T08:30:29.071Z,100350.78
2023-01-20T08:31:30.791Z,100355.31
2023-01-20T08:32:34.851Z,100373.91
2023-01-20T08:33:37.066Z,100361.56
2023-01-20T08:34:39.643Z,100355.81
2023-01-20T08:35:42.183Z,100366.06
2023-01-20T08:36:44.713Z,100350.75
2023-01-20T08:37:46.701Z,100369.16
2023-01-20T08:38:50.118Z,100382.69
2023-01-20T08:39:51.958Z,100367.03
2023-01-20T08:40:54.585Z,100371.09
2023-01-20T08:41:57.247Z,100379.69
2023-01-20T08:42:59.168Z,100380.44
2023-01-20T08:44:04.391Z,100382.44
2023-01-20T08:45:07.785Z,100350.69
2023-01-20T08:46:12.396Z,100356.50
2023-01-20T08:47:14.997Z,100369.34
2023-01-20T08:48:19.957Z,100380.72
2023-01-20T08:49:23.606Z,100366.13
2023-01-20T08:50:25.520Z,100373.25
2023-01-20T08:51:31.163Z,100383.84
2023-01-20T08:52:34.061Z,100388.69
2023-01-20T08:53:36.257Z,100371.84
2023-01-20T08:54:38.892Z,100388.97
2023-01-20T08:55:41.386Z,100379.56
2023-01-20T08:56:45.569Z,100391.75
2023-01-20T08:57:48.072Z,100393.56
2023-01-20T08:58:50.287Z,100390.00
2023-01-20T08:59:52.998Z,100392.06
2023-01-20T09:00:55.556Z,100393.38
2023-01-20T09:01:58.303Z,100392.75
2023-01-20T09:02:59.967Z,100407.00
2023-01-20T09:04:07.301Z,100392.03
2023-01-20T09:05:10.893Z,100395.00
2023-01-20T09:06:14.997Z,100408.25
2023-01-20T09:07:18.668Z,100399.28
2023-01-20T09:08:20.747Z,100412.84
2023-01-20T09:09:24.060Z,100393.47
2023-01-20T09:10:25.719Z,100412.59
2023-01-20T09:11:28.345Z,100403.59
2023-01-20T09:12:31.052Z,100402.75
2023-01-20T09:13:32.796Z,100416.19
2023-01-20T09:14:35.376Z,100410.94
2023-01-20T09:15:37.105Z,100411.44
2023-01-20T09:16:40.039Z,100417.56
2023-01-20T09:17:42.678Z,100424.81
2023-01-20T09:18:44.608Z,100413.56
2023-01-20T09:19:48.638Z,100432.38
2023-01-20T09:20:53.742Z,100410.22
2023-01-20T09:21:57.484Z,100424.03
2023-01-20T09:23:02.794Z,100428.00
2023-01-20T09:24:06.290Z,100427.34
2023-01-20T09:25:11.576Z,100435.59
2023-01-20T09:26:29.617Z,100432.22
2023-01-20T09:27:37.206Z,100432.50
2023-01-20T09:28:39.764Z,100424.09
2023-01-20T09:29:42.316Z,100443.72
2023-01-20T09:30:45.135Z,100445.72
2023-01-20T09:31:58.140Z,100441.94
2023-01-20T09:33:01.016Z,100432.16
2023-01-20T09:34:03.815Z,100441.25
2023-01-20T09:35:11.472Z,100443.75
2023-01-20T09:36:14.318Z,100424.28
2023-01-20T09:37:36.319Z,100427.72
2023-01-20T09:38:58.237Z,100444.28
2023-01-20T09:40:18.651Z,100452.78
2023-01-20T09:41:54.742Z,100449.66
2023-01-20T09:43:26.172Z,100464.94
2023-01-20T09:44:44.311Z,100469.78
2023-01-20T09:45:55.817Z,100442.13
2023-01-20T09:47:21.068Z,100468.50
2023-01-20T09:48:53.705Z,100463.88
2023-01-20T09:50:49.317Z,100455.13
2023-01-20T09:52:19.262Z,100439.19
2023-01-20T09:53:35.091Z,100475.75
2023-01-20T09:54:44.168Z,100461.09
2023-01-20T09:55:50.928Z,100482.78
2023-01-20T09:56:57.581Z,100466.69
2023-01-20T09:58:11.408Z,100476.50
2023-01-20T09:59:20.753Z,100461.88
2023-01-20T10:00:25.051Z,100486.78
2023-01-20T10:01:32.756Z,100478.91
2023-01-20T10:02:37.585Z,100479.28
2023-01-20T10:03:48.757Z,100478.94
2023-01-20T10:04:54.651Z,100465.81
2023-01-20T10:06:03.920Z,100484.88
2023-01-20T10:07:13.160Z,100461.22
2023-01-20T10:08:20.253Z,100476.66
2023-01-20T10:09:33.463Z,100467.28
2023-01-20T10:10:42.065Z,100477.78
2023-01-20T10:11:48.098Z,100484.09
2023-01-20T10:12:55.207Z,100474.22
2023-01-20T10:14:09.629Z,100483.63
2023-01-20T10:15:17.874Z,100471.25
2023-01-20T10:16:28.545Z,100478.56
2023-01-20T10:17:39.171Z,100477.03
2023-01-20T10:18:47.489Z,100480.38
2023-01-20T10:19:56.238Z,100471.53
2023-01-20T10:21:02.987Z,100487.13
2023-01-20T10:22:11.821Z,100485.91
2023-01-20T10:23:21.435Z,100480.44
2023-01-20T10:24:28.877Z,100464.75
2023-01-20T10:25:39.229Z,100479.63
2023-01-20T10:26:47.844Z,100487.28
2023-01-20T10:27:55.797Z,100490.28
2023-01-20T10:29:01.919Z,100475.69
2023-01-20T10:30:10.419Z,100470.97
2023-01-20T10:31:15.660Z,100485.72
2023-01-20T10:32:29.550Z,100491.13
2023-01-20T10:33:36.059Z,100495.94
2023-01-20T10:34:44.529Z,100470.44
2023-01-20T10:35:51.127Z,100478.50
2023-01-20T10:37:03.896Z,100491.66
2023-01-20T10:38:19.245Z,100486.19
2023-01-20T10:39:31.015Z,100492.69
2023-01-20T10:40:39.655Z,100487.41
2023-01-20T10:41:47.401Z,100501.91
2023-01-20T10:42:58.013Z,100503.09
2023-01-20T10:44:01.877Z,100485.03
2023-01-20T10:45:09.489Z,100483.88
2023-01-20T10:46:23.984Z,100476.66
2023-01-20T10:47:43.545Z,100492.59
2023-01-20T10:49:06.640Z,100484.09
2023-01-20T10:50:24.217Z,100488.75
2023-01-20T10:51:40.767Z,100495.75
2023-01-20T10:53:04.181Z,100490.72
2023-01-20T10:54:23.732Z,100491.59
2023-01-20T10:55:41.472Z,100499.53
2023-01-20T10:56:53.755Z,100489.06
2023-01-20T10:58:04.450Z,100488.22
2023-01-20T10:59:11.258Z,100475.66
2023-01-20T11:00:25.089Z,100478.03
2023-01-20T11:01:30.203Z,100478.16
2023-01-20T11:02:35.832Z,100494.22
2023-01-20T11:03:42.922Z,100502.69
2023-01-20T11:04:47.785Z,100487.88
2023-01-20T11:05:53.138Z,100500.94
2023-01-20T11:07:03.768Z,100504.00
2023-01-20T11:08:16.495Z,100503.16
2023-01-20T11:09:28.134Z,100488.75
2023-01-20T11:10:36.407Z,100505.06
2023-01-20T11:11:43.247Z,100492.25
2023-01-20T11:12:54.213Z,100498.84
2023-01-20T11:13:59.641Z,100507.47
2023-01-20T11:15:03.577Z,100503.09
2023-01-20T11:16:15.101Z,100511.13
2023-01-20T11:17:22.357Z,100511.66
2023-01-20T11:18:28.320Z,100512.47
2023-01-20T11:19:46.377Z,100505.91
2023-01-20T11:20:50.120Z,100506.97
2023-01-20T11:21:53.812Z,100511.31
2023-01-20T11:22:56.914Z,100493.16
2023-01-20T11:24:01.792Z,100504.47
2023-01-20T11:25:06.520Z,100506.66
2023-01-20T11:26:19.668Z,100505.94
2023-01-20T11:27:25.651Z,100515.19
2023-01-20T11:28:32.936Z,100516.59
2023-01-20T11:29:43.461Z,100492.91
2023-01-20T11:30:51.975Z,100506.50
2023-01-20T11:31:56.796Z,100515.47
2023-01-20T11:33:11.125Z,100501.91
2023-01-20T11:34:25.406Z,100500.63
2023-01-20T11:35:28.076Z,100506.25
2023-01-20T11:36:29.893Z,100501.13
2023-01-20T11:37:40.461Z,100514.47
2023-01-20T11:38:44.823Z,100504.97
2023-01-20T11:40:01.115Z,100509.06
2023-01-20T11:41:04.043Z,100508.72
2023-01-20T11:42:17.175Z,100501.50
2023-01-20T11:43:29.637Z,100515.69
2023-01-20T11:44:31.357Z,100523.13
2023-01-20T11:45:36.132Z,100510.78
2023-01-20T11:46:38.420Z,100506.41
2023-01-20T11:47:41.276Z,100523.69
2023-01-20T11:48:46.085Z,100498.28
2023-01-20T11:50:20.910Z,100497.59
2023-01-20T11:51:26.447Z,100511.16
2023-01-20T11:52:28.202Z,100509.91
2023-01-20T11:53:32.433Z,100504.16
2023-01-20T11:54:37.192Z,100520.34
2023-01-20T11:55:47.264Z,100525.91
2023-01-20T11:56:54.369Z,100525.25
2023-01-20T11:57:59.587Z,100513.41
2023-01-20T11:59:05.597Z,100522.53
2023-01-20T12:00:31.530Z,100518.91
2023-01-20T12:01:52.881Z,100515.78
2023-01-20T12:03:00.617Z,100518.63
2023-01-20T12:04:24.382Z,100517.03
2023-01-20T12:05:36.090Z,100528.22
2023-01-20T12:06:48.141Z,100510.75
2023-01-20T12:07:53.385Z,100530.13
2023-01-20T12:09:01.542Z,100520.63
2023-01-20T12:10:13.093Z,100518.31
2023-01-20T12:11:19.355Z,100529.94
2023-01-20T12:12:30.846Z,100521.41
2023-01-20T12:13:59.691Z,100534.31
2023-01-20T12:15:06.028Z,100540.16
2023-01-20T12:16:12.327Z,100528.56
2023-01-20T12:17:27.147Z,100527.16
2023-01-20T12:18:35.727Z,100513.44
2023-01-20T12:19:51.171Z,100519.53
2023-01-20T12:21:00.258Z,100528.78
2023-01-20T12:22:12.013Z,100528.28
2023-01-20T12:23:25.055Z,100534.59
2023-01-20T12:24:52.519Z,100534.53
2023-01-20T12:26:00.620Z,100526.88
2023-01-20T12:27:03.758Z,100538.25
2023-01-20T12:28:14.240Z,100521.97
2023-01-20T12:29:22.516Z,100544.59
2023-01-20T12:30:44.179Z,100535.47
2023-01-20T12:31:49.405Z,100533.53
2023-01-20T12:32:51.219Z,100521.94
2023-01-20T12:34:00.581Z,100531.03